Time;durP1;ratioP1;P1;durP2;ratioP2;P2;SDS_P1;SDS_P2;PMS_P1;PMS_P2;Temp;Humidity;BMP_temperature;BMP_pressure;BME280_temperature;BME280_humidity;BME280_pressure;Samples;Min_cycle;Max_cycle;Signal;HPM_P1;HPM_P2
2023/11/04 00:01:53;;;;;;;;;;;;;;;13.75;100.00;98266.75;4996039;28;19962;-89
2023/11/04 00:04:19;;;;;;;;;;;;;;;13.77;100.00;98286.84;4997002;28;20038;-87
2023/11/04 00:06:44;;;;;;;;;;;;;;;13.83;100.00;98281.69;5011247;28;19915;-85
2023/11/04 00:09:09;;;;;;;;;;;;;;;13.97;100.00;98256.53;4995286;28;19914;-89
2023/11/04 00:11:34;;;;;;;;;;;;;;;13.65;100.00;98234.53;5011453;28;20359;-86
2023/11/04 00:14:00;;;;;;;;;;;;;;;13.86;100.00;98250.78;4999915;28;19921;-90
2023/11/04 00:16:25;;;;;;;;;;;;;;;13.89;100.00;98229.53;5015605;28;19914;-92
2023/11/04 00:18:50;;;;;;;;;;;;;;;13.99;100.00;98195.09;5015512;28;19917;-93
2023/11/04 00:21:16;;;;;;;;;;;;;;;14.13;100.00;98176.72;5016382;28;19920;-91
2023/11/04 00:23:41;;;;;;;;;;;;;;;14.25;100.00;98165.16;5015293;28;20327;-92
2023/11/04 00:26:07;;;;;;;;;;;;;;;14.26;100.00;98161.16;5015403;28;19949;-93
2023/11/04 00:28:33;;;;;;;;;;;;;;;14.35;100.00;98154.38;5005769;28;19980;-92
2023/11/04 00:30:58;;;;;;;;;;;;;;;14.20;100.00;98143.03;4994977;28;20452;-84
2023/11/04 00:33:23;;;;;;;;;;;;;;;14.25;100.00;98158.75;4994120;28;20313;-84
2023/11/04 00:35:49;;;;;;;;;;;;;;;14.26;100.00;98160.34;4994258;28;19918;-85
2023/11/04 00:38:14;;;;;;;;;;;;;;;14.13;100.00;98146.63;4993728;28;20017;-84
2023/11/04 00:40:41;;;;;;;;;;;;;;;14.17;100.00;98147.44;5010229;28;19948;-84
2023/11/04 00:43:07;;;;;;;;;;;;;;;14.15;100.00;98161.09;4992947;28;19917;-83
2023/11/04 00:45:32;;;;;;;;;;;;;;;14.11;100.00;98153.81;4993317;28;19924;-84
2023/11/04 00:47:58;;;;;;;;;;;;;;;14.02;100.00;98163.38;4994134;28;19914;-84
2023/11/04 00:50:24;;;;;;;;;;;;;;;14.10;100.00;98166.28;4993821;28;19914;-84
2023/11/04 00:52:49;;;;;;;;;;;;;;;14.12;100.00;98152.63;4993780;28;19934;-84
2023/11/04 00:55:14;;;;;;;;;;;;;;;14.25;100.00;98139.06;4990070;28;19922;-84
2023/11/04 00:57:40;;;;;;;;;;;;;;;14.28;100.00;98141.88;4983277;28;19925;-85
2023/11/04 01:00:05;;;;;;;;;;;;;;;14.25;100.00;98147.50;4993626;28;19924;-85
2023/11/04 01:02:32;;;;;;;;;;;;;;;14.23;100.00;98155.50;4993856;28;20011;-85
2023/11/04 01:04:57;;;;;;;;;;;;;;;14.35;100.00;98149.53;4993477;28;19917;-84
2023/11/04 01:07:22;;;;;;;;;;;;;;;14.41;100.00;98152.78;4995120;28;19914;-85
2023/11/04 01:09:48;;;;;;;;;;;;;;;14.54;100.00;98147.66;4993710;28;19920;-84
2023/11/04 01:12:13;;;;;;;;;;;;;;;14.63;100.00;98142.47;4992371;28;19917;-84
2023/11/04 01:14:38;;;;;;;;;;;;;;;14.63;100.00;98119.97;5009806;28;20018;-84
2023/11/04 01:17:04;;;;;;;;;;;;;;;14.65;100.00;98100.66;5009814;28;19936;-84
2023/11/04 01:19:29;;;;;;;;;;;;;;;14.59;100.00;98071.28;5006479;28;19980;-84
2023/11/04 01:21:54;;;;;;;;;;;;;;;14.43;100.00;98032.28;4992770;28;19922;-84
2023/11/04 01:24:20;;;;;;;;;;;;;;;14.36;100.00;97990.88;5009516;28;20407;-85
2023/11/04 01:26:45;;;;;;;;;;;;;;;14.32;100.00;97981.59;4993396;28;20016;-84
2023/11/04 01:29:11;;;;;;;;;;;;;;;14.38;100.00;97982.81;5008303;28;19917;-84
2023/11/04 01:31:37;;;;;;;;;;;;;;;14.44;100.00;97972.78;4973879;28;20004;-84
2023/11/04 01:34:02;;;;;;;;;;;;;;;14.48;100.00;97953.09;5000799;28;19961;-85
2023/11/04 01:36:28;;;;;;;;;;;;;;;14.57;100.00;97949.91;4993267;28;19914;-85
2023/11/04 01:38:54;;;;;;;;;;;;;;;14.59;100.00;97951.13;4993032;28;19921;-86
2023/11/04 01:41:19;;;;;;;;;;;;;;;14.68;100.00;97952.75;4993234;28;19925;-85
2023/11/04 01:43:45;;;;;;;;;;;;;;;14.72;100.00;97954.41;4993343;28;19913;-86
2023/11/04 01:46:16;;;;;;;;;;;;;;;14.76;100.00;97945.16;4989623;28;19941;-85
2023/11/04 01:48:42;;;;;;;;;;;;;;;14.79;100.00;97931.09;4992773;28;19953;-86
2023/11/04 01:51:07;;;;;;;;;;;;;;;14.83;100.00;97925.44;4993224;28;20474;-86
2023/11/04 01:53:33;;;;;;;;;;;;;;;14.90;100.00;97942.34;4993172;28;20416;-86
2023/11/04 01:56:04;;;;;;;;;;;;;;;14.94;100.00;97943.13;4993002;28;20297;-87
2023/11/04 01:58:31;;;;;;;;;;;;;;;14.94;100.00;97922.63;4993073;28;19918;-87
2023/11/04 02:00:58;;;;;;;;;;;;;;;15.00;100.00;97927.47;4991399;28;19953;-86
2023/11/04 02:03:24;;;;;;;;;;;;;;;14.89;100.00;97912.59;4977818;28;20386;-86
2023/11/04 02:05:49;;;;;;;;;;;;;;;14.88;100.00;97897.69;4992163;28;19928;-86
2023/11/04 02:08:14;;;;;;;;;;;;;;;14.83;100.00;97886.03;4992934;28;20384;-85
2023/11/04 02:10:40;;;;;;;;;;;;;;;14.80;100.00;97884.03;4992612;28;19940;-85
2023/11/04 02:13:05;;;;;;;;;;;;;;;14.76;100.00;97908.56;4994222;28;19913;-86
2023/11/04 02:15:30;;;;;;;;;;;;;;;14.77;100.00;97896.88;4992370;28;20304;-86
2023/11/04 02:17:56;;;;;;;;;;;;;;;14.84;100.00;97877.19;4993502;28;20400;-85
2023/11/04 02:20:23;;;;;;;;;;;;;;;14.93;100.00;97857.06;4975643;28;19925;-86
2023/11/04 02:22:48;;;;;;;;;;;;;;;15.04;100.00;97879.59;4972741;28;19922;-86
2023/11/04 02:25:15;;;;;;;;;;;;;;;15.15;100.00;97945.16;4973166;28;19924;-87
2023/11/04 02:27:44;;;;;;;;;;;;;;;15.14;100.00;97973.72;4973460;28;19918;-87
2023/11/04 02:30:11;;;;;;;;;;;;;;;14.94;100.00;97993.81;4973398;28;20316;-87
2023/11/04 02:32:37;;;;;;;;;;;;;;;15.11;100.00;97997.06;4989770;28;19914;-88
2023/11/04 02:35:04;;;;;;;;;;;;;;;15.08;100.00;97980.94;4993979;28;19917;-87
2023/11/04 02:37:29;;;;;;;;;;;;;;;14.93;100.00;97975.31;4992579;28;19925;-86
2023/11/04 02:39:55;;;;;;;;;;;;;;;14.83;100.00;97981.72;4991920;28;19925;-84
2023/11/04 02:42:20;;;;;;;;;;;;;;;14.79;100.00;97956.41;4992149;28;20312;-86
2023/11/04 02:44:45;;;;;;;;;;;;;;;14.72;100.00;97962.84;4992073;28;19918;-86
2023/11/04 02:47:11;;;;;;;;;;;;;;;14.60;100.00;97971.63;4991210;28;19917;-86
2023/11/04 02:49:36;;;;;;;;;;;;;;;14.46;100.00;97978.81;4992142;28;19920;-86
2023/11/04 02:52:01;;;;;;;;;;;;;;;14.37;100.00;97998.09;4991525;28;19918;-86
2023/11/04 02:54:28;;;;;;;;;;;;;;;14.40;100.00;98008.53;4993352;28;20009;-87
2023/11/04 02:56:53;;;;;;;;;;;;;;;14.35;100.00;97989.22;4991905;28;19914;-85
2023/11/04 02:59:18;;;;;;;;;;;;;;;14.35;100.00;98006.09;4992913;28;19972;-86
2023/11/04 03:01:44;;;;;;;;;;;;;;;14.30;100.00;97992.44;4988077;28;19918;-85
2023/11/04 03:04:10;;;;;;;;;;;;;;;14.40;100.00;97988.84;4973554;28;19961;-86
2023/11/04 03:06:35;;;;;;;;;;;;;;;14.39;100.00;97978.81;4972830;28;19921;-86
2023/11/04 03:09:01;;;;;;;;;;;;;;;14.33;100.00;97986.00;4976290;28;19919;-86
2023/11/04 03:11:26;;;;;;;;;;;;;;;14.49;100.00;97982.84;4978768;28;19925;-85
2023/11/04 03:13:51;;;;;;;;;;;;;;;14.70;100.00;97968.00;4991668;28;19920;-85
2023/11/04 03:16:20;;;;;;;;;;;;;;;14.56;100.00;97939.84;4991428;28;19961;-85
2023/11/04 03:18:45;;;;;;;;;;;;;;;14.53;100.00;97963.16;4988389;28;20292;-85
2023/11/04 03:21:11;;;;;;;;;;;;;;;14.52;100.00;97953.91;4976841;28;19925;-86
2023/11/04 03:23:36;;;;;;;;;;;;;;;14.46;100.00;97933.00;5007871;28;19920;-86
2023/11/04 03:26:01;;;;;;;;;;;;;;;14.46;100.00;97949.91;4989170;28;19929;-85
2023/11/04 03:28:26;;;;;;;;;;;;;;;14.46;100.00;97914.13;4991553;28;20444;-86
2023/11/04 03:30:52;;;;;;;;;;;;;;;14.46;100.00;97928.19;4991546;28;20008;-86
2023/11/04 03:33:17;;;;;;;;;;;;;;;14.48;100.00;97927.78;4991589;28;19983;-87
2023/11/04 03:35:44;;;;;;;;;;;;;;;14.51;100.00;97935.44;4991475;28;20373;-86
2023/11/04 03:38:09;;;;;;;;;;;;;;;14.48;100.00;97935.41;4991917;28;20400;-86
2023/11/04 03:40:34;;;;;;;;;;;;;;;14.45;100.00;97929.38;4991768;28;20014;-87
2023/11/04 03:43:00;;;;;;;;;;;;;;;14.49;100.00;97925.78;4993001;28;19945;-87
2023/11/04 03:45:25;;;;;;;;;;;;;;;14.53;100.00;97949.88;4993027;28;19961;-87
2023/11/04 03:47:50;;;;;;;;;;;;;;;14.63;100.00;97950.31;4991753;28;20316;-87
2023/11/04 03:50:17;;;;;;;;;;;;;;;14.59;100.00;97945.50;4991861;28;19914;-88
2023/11/04 03:52:42;;;;;;;;;;;;;;;14.55;100.00;97952.31;4991839;28;20320;-87
2023/11/04 03:55:08;;;;;;;;;;;;;;;14.60;100.00;97955.53;4992818;28;19914;-87
2023/11/04 03:57:33;;;;;;;;;;;;;;;14.62;100.00;97906.50;4997075;28;19914;-88
2023/11/04 03:59:58;;;;;;;;;;;;;;;14.55;100.00;97908.13;4988443;28;19926;-88
2023/11/04 04:02:24;;;;;;;;;;;;;;;14.56;100.00;97917.34;4989046;28;20297;-87
2023/11/04 04:04:49;;;;;;;;;;;;;;;14.54;100.00;97900.06;4972181;28;19922;-87
2023/11/04 04:07:14;;;;;;;;;;;;;;;14.55;100.00;97905.31;4972078;28;20012;-87
2023/11/04 04:09:40;;;;;;;;;;;;;;;14.68;100.00;97893.66;4977372;28;20008;-87
2023/11/04 04:12:05;;;;;;;;;;;;;;;14.68;100.00;97905.69;4991650;28;20075;-87
2023/11/04 04:14:30;;;;;;;;;;;;;;;14.60;100.00;97895.66;4991976;28;20426;-89
2023/11/04 04:16:55;;;;;;;;;;;;;;;14.62;100.00;97893.25;4992037;28;20467;-89
2023/11/04 04:19:21;;;;;;;;;;;;;;;14.66;100.00;97891.25;4994783;28;20292;-89
2023/11/04 04:21:46;;;;;;;;;;;;;;;14.62;100.00;97887.63;4995442;28;20027;-90
2023/11/04 04:24:11;;;;;;;;;;;;;;;14.64;100.00;97890.84;4995303;28;19922;-90
2023/11/04 04:26:37;;;;;;;;;;;;;;;14.80;100.00;97906.53;4995550;28;19917;-89
2023/11/04 04:29:02;;;;;;;;;;;;;;;14.82;100.00;97933.09;4995319;28;20301;-88
2023/11/04 04:31:28;;;;;;;;;;;;;;;14.83;100.00;97968.47;4995313;28;19914;-88
2023/11/04 04:33:53;;;;;;;;;;;;;;;14.80;100.00;97962.84;4995207;28;19919;-88
2023/11/04 04:36:18;;;;;;;;;;;;;;;14.80;100.00;97985.34;4994690;28;19925;-87
2023/11/04 04:38:44;;;;;;;;;;;;;;;14.76;100.00;98012.69;4997620;28;19913;-87
2023/11/04 04:41:10;;;;;;;;;;;;;;;14.96;100.00;98032.81;5014538;28;19917;-87
2023/11/04 04:43:36;;;;;;;;;;;;;;;14.71;100.00;98028.72;5015207;28;19971;-86
2023/11/04 04:46:02;;;;;;;;;;;;;;;14.80;100.00;97966.47;5015299;28;19924;-87
2023/11/04 04:48:28;;;;;;;;;;;;;;;14.67;100.00;97892.06;5001060;28;20388;-87
2023/11/04 04:50:54;;;;;;;;;;;;;;;14.51;100.00;97760.22;4994563;28;19924;-87
2023/11/04 04:53:19;;;;;;;;;;;;;;;14.44;100.00;97701.97;4994657;28;19917;-86
2023/11/04 04:55:45;;;;;;;;;;;;;;;14.48;100.00;97716.00;5010533;28;19914;-86
2023/11/04 04:58:11;;;;;;;;;;;;;;;14.43;100.00;97782.72;5009225;28;19968;-88
2023/11/04 05:00:36;;;;;;;;;;;;;;;14.48;100.00;97794.75;4980884;28;19918;-88
2023/11/04 05:03:05;;;;;;;;;;;;;;;14.43;100.00;97805.22;4991680;28;19929;-90
2023/11/04 05:05:33;;;;;;;;;;;;;;;14.41;100.00;97835.75;4976437;28;19977;-89
2023/11/04 05:07:59;;;;;;;;;;;;;;;14.43;100.00;97838.19;4984600;28;19913;-89
2023/11/04 05:10:24;;;;;;;;;;;;;;;14.43;100.00;97833.34;4996832;28;19921;-88
2023/11/04 05:12:49;;;;;;;;;;;;;;;14.36;100.00;97836.19;4995024;28;19918;-89
2023/11/04 05:15:15;;;;;;;;;;;;;;;14.42;100.00;97830.94;4995365;28;20258;-89
2023/11/04 05:17:40;;;;;;;;;;;;;;;14.37;100.00;97829.34;4994739;28;19913;-94
2023/11/04 05:20:07;;;;;;;;;;;;;;;14.33;100.00;97789.16;4995253;28;19921;-89
2023/11/04 05:22:33;;;;;;;;;;;;;;;14.29;100.00;97789.13;4993958;28;20411;-88
2023/11/04 05:24:59;;;;;;;;;;;;;;;14.36;100.00;97785.56;5010498;28;19922;-88
2023/11/04 05:27:25;;;;;;;;;;;;;;;14.37;100.00;97775.09;5011133;28;20403;-89
2023/11/04 05:29:50;;;;;;;;;;;;;;;14.43;100.00;97782.72;5010323;28;19914;-94
2023/11/04 05:32:17;;;;;;;;;;;;;;;14.37;100.00;97759.03;5010242;28;19925;-90
2023/11/04 05:34:44;;;;;;;;;;;;;;;14.37;100.00;97775.09;4993594;28;19914;-89
2023/11/04 05:37:09;;;;;;;;;;;;;;;14.51;100.00;97774.28;4990910;28;20012;-89
2023/11/04 05:39:35;;;;;;;;;;;;;;;14.42;100.00;97777.47;4994595;28;20368;-89
2023/11/04 05:42:02;;;;;;;;;;;;;;;14.35;100.00;97769.84;4994135;28;19953;-89
2023/11/04 05:44:27;;;;;;;;;;;;;;;14.23;100.00;97762.63;5010120;28;19922;-88
2023/11/04 05:46:52;;;;;;;;;;;;;;;14.21;100.00;97772.66;4994148;28;20340;-88
2023/11/04 05:49:18;;;;;;;;;;;;;;;14.21;100.00;97801.59;5010102;28;20015;-88
2023/11/04 05:51:43;;;;;;;;;;;;;;;14.21;100.00;97821.28;5010144;28;19913;-88
2023/11/04 05:54:11;;;;;;;;;;;;;;;14.21;100.00;97837.34;5008313;28;20442;-87
2023/11/04 05:56:37;;;;;;;;;;;;;;;14.26;100.00;97818.06;4993685;28;19980;-87
2023/11/04 05:59:02;;;;;;;;;;;;;;;14.41;100.00;97832.94;4994260;28;19976;-86
2023/11/04 06:01:27;;;;;;;;;;;;;;;14.46;100.00;97806.44;4993356;28;19921;-87
2023/11/04 06:03:53;;;;;;;;;;;;;;;14.40;100.00;97701.16;4993041;28;19928;-86
2023/11/04 06:06:21;;;;;;;;;;;;;;;14.36;100.00;97781.94;4992958;28;19922;-86
2023/11/04 06:08:47;;;;;;;;;;;;;;;14.50;100.00;97849.44;4992953;28;19949;-85
2023/11/04 06:11:12;;;;;;;;;;;;;;;14.37;100.00;97806.84;5009306;28;20359;-86
2023/11/04 06:13:38;;;;;;;;;;;;;;;14.41;100.00;97847.00;4994258;28;20296;-86
2023/11/04 06:16:03;;;;;;;;;;;;;;;14.63;100.00;97858.28;4990564;28;19924;-84
2023/11/04 06:18:28;;;;;;;;;;;;;;;14.65;100.00;97849.41;4986040;28;20432;-85
2023/11/04 06:20:56;;;;;;;;;;;;;;;14.73;100.00;97863.13;4975066;28;19927;-92
2023/11/04 06:23:21;;;;;;;;;;;;;;;14.82;100.00;97904.13;4985468;28;19921;-88
2023/11/04 06:25:46;;;;;;;;;;;;;;;14.65;100.00;97934.66;4993151;28;19922;-91
2023/11/04 06:28:11;;;;;;;;;;;;;;;14.42;100.00;97947.06;4994129;28;19913;-91
2023/11/04 06:30:37;;;;;;;;;;;;;;;14.22;100.00;97948.59;4992894;28;19944;-90
2023/11/04 06:33:02;;;;;;;;;;;;;;;14.11;100.00;97962.63;4988997;28;20344;-88
2023/11/04 06:35:28;;;;;;;;;;;;;;;13.97;100.00;97930.47;4992088;28;19917;-87
2023/11/04 06:37:54;;;;;;;;;;;;;;;13.89;100.00;97901.53;4989713;28;19928;-87
2023/11/04 06:40:19;;;;;;;;;;;;;;;13.89;100.00;97881.84;4983711;28;19918;-86
2023/11/04 06:42:45;;;;;;;;;;;;;;;13.97;100.00;97877.06;4989875;28;19940;-85
2023/11/04 06:45:11;;;;;;;;;;;;;;;14.05;100.00;97920.06;4994692;28;19952;-87
2023/11/04 06:47:36;;;;;;;;;;;;;;;14.12;100.00;97931.34;4999154;28;20004;-89
2023/11/04 06:50:04;;;;;;;;;;;;;;;14.20;100.00;97906.03;4996612;28;19957;-88
2023/11/04 06:52:30;;;;;;;;;;;;;;;14.21;100.00;97879.53;4996141;28;19917;-88
2023/11/04 06:54:55;;;;;;;;;;;;;;;14.32;100.00;97906.47;4996317;28;19918;-89
2023/11/04 06:57:21;;;;;;;;;;;;;;;14.53;100.00;97904.09;5013236;28;19914;-89
2023/11/04 06:59:46;;;;;;;;;;;;;;;14.65;100.00;97883.19;5010866;28;19917;-89
2023/11/04 07:02:12;;;;;;;;;;;;;;;14.70;100.00;97914.53;4993358;28;19920;-90
2023/11/04 07:04:37;;;;;;;;;;;;;;;14.86;100.00;97890.88;4993134;28;19918;-89
2023/11/04 07:07:03;;;;;;;;;;;;;;;14.63;100.00;97886.41;4992848;28;20016;-88
2023/11/04 07:09:28;;;;;;;;;;;;;;;14.76;100.00;97917.00;4989811;28;20028;-90
2023/11/04 07:11:53;;;;;;;;;;;;;;;14.68;100.00;97925.41;4989886;28;19918;-90
2023/11/04 07:14:19;;;;;;;;;;;;;;;14.81;100.00;97922.22;4992980;28;19921;-88
2023/11/04 07:16:45;;;;;;;;;;;;;;;15.01;100.00;97906.53;4993385;28;20373;-88
2023/11/04 07:19:11;;;;;;;;;;;;;;;15.23;100.00;97855.84;4992625;28;19921;-87
2023/11/04 07:21:37;;;;;;;;;;;;;;;15.25;100.00;97856.22;4992383;28;19980;-87
2023/11/04 07:24:03;;;;;;;;;;;;;;;15.41;100.00;97869.06;4993401;28;19920;-86
2023/11/04 07:26:29;;;;;;;;;;;;;;;15.18;100.00;97894.88;4986464;28;19914;-87
2023/11/04 07:28:55;;;;;;;;;;;;;;;15.02;100.00;97908.16;4989799;28;20013;-87
2023/11/04 07:31:20;;;;;;;;;;;;;;;14.99;100.00;97847.03;4991412;28;20376;-85
2023/11/04 07:33:46;;;;;;;;;;;;;;;14.91;100.00;97853.88;4991710;28;19918;-85
2023/11/04 07:36:12;;;;;;;;;;;;;;;14.83;100.00;97871.97;4991721;28;19918;-85
2023/11/04 07:38:37;;;;;;;;;;;;;;;14.97;100.00;97855.06;4986591;28;20477;-86
2023/11/04 07:41:03;;;;;;;;;;;;;;;14.90;100.00;97798.78;4980443;28;19921;-86
2023/11/04 07:43:32;;;;;;;;;;;;;;;14.94;100.00;97793.16;4985292;28;19924;-86
2023/11/04 07:45:57;;;;;;;;;;;;;;;14.84;100.00;97804.03;5008244;28;19917;-88
2023/11/04 07:48:23;;;;;;;;;;;;;;;14.91;100.00;97796.78;4992309;28;19913;-88
2023/11/04 07:50:48;;;;;;;;;;;;;;;15.00;100.00;97781.06;4991907;28;20363;-87
2023/11/04 07:53:15;;;;;;;;;;;;;;;14.98;100.00;97749.72;5010043;28;19918;-90
2023/11/04 07:55:41;;;;;;;;;;;;;;;14.85;100.00;97721.19;5004915;28;20249;-90
2023/11/04 07:58:06;;;;;;;;;;;;;;;14.98;100.00;97704.66;5002651;28;19921;-90
2023/11/04 08:00:31;;;;;;;;;;;;;;;15.20;100.00;97743.97;4996143;28;19922;-90
2023/11/04 08:02:57;;;;;;;;;;;;;;;15.28;100.00;97764.50;4995543;28;19920;-84
2023/11/04 08:05:23;;;;;;;;;;;;;;;15.33;100.00;97752.00;4983477;28;19922;-86
2023/11/04 08:07:48;;;;;;;;;;;;;;;15.21;100.00;97739.97;4984452;28;19996;-90
2023/11/04 08:10:13;;;;;;;;;;;;;;;15.39;100.00;97753.97;4994924;28;20408;-85
2023/11/04 08:12:39;;;;;;;;;;;;;;;15.37;100.00;97752.78;4994040;28;19977;-86
2023/11/04 08:15:07;;;;;;;;;;;;;;;15.14;100.00;97749.25;4991311;28;19918;-86
2023/11/04 08:17:32;;;;;;;;;;;;;;;14.99;100.00;97737.22;4994372;28;19913;-86
2023/11/04 08:19:58;;;;;;;;;;;;;;;14.85;100.00;97749.31;4995005;28;20543;-86
2023/11/04 08:22:24;;;;;;;;;;;;;;;14.78;100.00;97765.44;4994244;28;20339;-85
2023/11/04 08:24:49;;;;;;;;;;;;;;;-148.46;100.00;66949.34;4988590;28;19921;-84
2023/11/04 08:27:15;;;;;;;;;;;;;;;-148.46;100.00;66949.34;4992721;28;19933;-87
2023/11/04 08:29:41;;;;;;;;;;;;;;;-148.46;100.00;66949.34;4984500;28;19918;-85
2023/11/04 08:32:06;;;;;;;;;;;;;;;-148.46;100.00;66949.34;4993382;28;20012;-86
2023/11/04 08:34:32;;;;;;;;;;;;;;;-148.46;100.00;66949.34;4989548;28;20381;-86
2023/11/04 08:36:57;;;;;;;;;;;;;;;-148.46;100.00;66949.34;4978262;28;20508;-85
2023/11/04 08:39:22;;;;;;;;;;;;;;;14.78;100.00;97765.44;4991876;28;20085;-83
2023/11/04 08:41:48;;;;;;;;;;;;;;;14.17;100.00;97857.00;4982383;28;19918;-81
2023/11/04 08:44:14;;;;;;;;;;;;;;;14.00;100.00;97906.41;4978701;28;19921;-83
2023/11/04 08:46:39;;;;;;;;;;;;;;;-148.46;100.00;66949.34;4986216;28;19922;-83
2023/11/04 08:49:06;;;;;;;;;;;;;;;13.92;100.00;97910.38;4991463;28;20002;-81
2023/11/04 08:51:32;;;;;;;;;;;;;;;-148.46;100.00;66949.34;4991079;28;19924;-80
2023/11/04 08:53:57;;;;;;;;;;;;;;;14.04;100.00;97820.06;4991897;28;20374;-81
2023/11/04 08:56:23;;;;;;;;;;;;;;;-148.46;100.00;66949.34;4992424;28;19918;-82
2023/11/04 08:58:48;;;;;;;;;;;;;;;14.38;100.00;97842.19;4991116;28;20005;-82
2023/11/04 09:01:14;;;;;;;;;;;;;;;14.42;100.00;97826.13;4990912;28;19918;-83
2023/11/04 09:03:39;;;;;;;;;;;;;;;14.80;100.00;97839.00;4980567;28;19927;-83
2023/11/04 09:06:08;;;;;;;;;;;;;;;14.79;100.00;97849.47;4977518;28;19922;-83
2023/11/04 09:08:34;;;;;;;;;;;;;;;14.97;100.00;97852.25;4980725;28;20297;-85
2023/11/04 09:10:59;;;;;;;;;;;;;;;14.86;100.00;97804.41;4992923;28;19921;-86
2023/11/04 09:13:24;;;;;;;;;;;;;;;14.53;100.00;97808.44;4976328;28;19973;-86
2023/11/04 09:15:50;;;;;;;;;;;;;;;14.42;100.00;97780.31;4981621;28;19989;-86
2023/11/04 09:18:15;;;;;;;;;;;;;;;14.49;100.00;97762.66;4980205;28;19964;-86
2023/11/04 09:20:41;;;;;;;;;;;;;;;14.50;100.00;97776.28;5008575;28;19922;-86
2023/11/04 09:23:06;;;;;;;;;;;;;;;-148.46;100.00;66949.34;4988984;28;20289;-86
2023/11/04 09:25:32;;;;;;;;;;;;;;;14.54;100.00;97796.78;4990423;28;20313;-88
2023/11/04 09:27:57;;;;;;;;;;;;;;;14.43;100.00;97782.72;4981045;28;20381;-89
2023/11/04 09:30:22;;;;;;;;;;;;;;;14.76;100.00;97734.09;4974772;28;19918;-89
2023/11/04 09:32:48;;;;;;;;;;;;;;;14.42;100.00;97674.22;4979393;28;19946;-89
2023/11/04 09:35:13;;;;;;;;;;;;;;;14.03;100.00;97661.03;4974631;28;20456;-87
2023/11/04 09:37:40;;;;;;;;;;;;;;;13.99;100.00;97602.00;5004618;28;20004;-86
2023/11/04 09:40:06;;;;;;;;;;;;;;;13.99;100.00;97522.50;4985007;28;20377;-85
2023/11/04 09:42:31;;;;;;;;;;;;;;;14.17;100.00;97500.78;4980049;28;19925;-85
2023/11/04 09:44:57;;;;;;;;;;;;;;;14.13;100.00;97552.59;4977852;28;19924;-86
2023/11/04 09:47:23;;;;;;;;;;;;;;;14.01;100.00;97500.44;4981103;28;20005;-88
2023/11/04 09:49:48;;;;;;;;;;;;;;;13.97;100.00;97505.25;4992988;28;19961;-90
2023/11/04 09:52:15;;;;;;;;;;;;;;;13.85;100.00;97524.13;4991412;28;19968;-90
2023/11/04 09:54:45;;;;;;;;;;;;;;;13.79;100.00;97545.44;4984386;28;19968;-91
2023/11/04 09:57:11;;;;;;;;;;;;;;;13.87;100.00;97541.41;4979796;28;19925;-91
2023/11/04 09:59:36;;;;;;;;;;;;;;;13.77;100.00;97567.53;4986770;28;19914;-90
2023/11/04 10:02:02;;;;;;;;;;;;;;;13.86;100.00;97553.84;4993746;28;19918;-92
2023/11/04 10:04:27;;;;;;;;;;;;;;;13.94;100.00;97525.75;4991285;28;19936;-91
2023/11/04 10:06:53;;;;;;;;;;;;;;;13.76;100.00;97529.41;4990680;28;20290;-91
2023/11/04 10:09:18;;;;;;;;;;;;;;;13.85;100.00;97535.38;4985581;28;19918;-92
2023/11/04 10:11:44;;;;;;;;;;;;;;;13.78;100.00;97541.03;4992397;28;20385;-91
2023/11/04 10:14:09;;;;;;;;;;;;;;;13.62;100.00;97521.78;4986325;28;19926;-91
2023/11/04 10:16:34;;;;;;;;;;;;;;;13.43;100.00;97498.50;4989303;28;19918;-91
2023/11/04 10:19:00;;;;;;;;;;;;;;;13.38;100.00;97470.00;4983137;28;20068;-91
2023/11/04 10:21:25;;;;;;;;;;;;;;;13.43;100.00;97425.47;4993241;28;19920;-93
2023/11/04 10:23:50;;;;;;;;;;;;;;;13.43;100.00;97425.47;4994083;28;19928;-93
2023/11/04 10:26:16;;;;;;;;;;;;;;;13.50;100.00;97396.59;4993507;28;19922;-91
2023/11/04 10:28:41;;;;;;;;;;;;;;;13.58;100.00;97411.47;4993831;28;19921;-92
2023/11/04 10:31:07;;;;;;;;;;;;;;;13.64;100.00;97418.25;4988111;28;19977;-92
2023/11/04 10:33:34;;;;;;;;;;;;;;;13.46;100.00;97433.16;4974525;28;19921;-93
2023/11/04 10:35:59;;;;;;;;;;;;;;;13.34;100.00;97428.72;4974709;28;20454;-92
2023/11/04 10:38:25;;;;;;;;;;;;;;;13.31;100.00;97445.56;4988913;28;19921;-92
2023/11/04 10:40:51;;;;;;;;;;;;;;;13.41;100.00;97455.19;4993865;28;20368;-93
2023/11/04 10:43:20;;;;;;;;;;;;;;;13.44;100.00;97488.09;4993616;28;20274;-91
2023/11/04 10:46:02;;;;;;;;;;;;;;;13.53;100.00;97474.47;4989788;28;20396;-91
2023/11/04 10:48:30;;;;;;;;;;;;;;;13.45;100.00;97496.13;4993915;28;19917;-93
2023/11/04 10:51:01;;;;;;;;;;;;;;;13.33;100.00;97502.09;4993153;28;19952;-93
2023/11/04 10:53:39;;;;;;;;;;;;;;;13.36;100.00;97520.97;5011574;28;19918;-92
2023/11/04 10:56:09;;;;;;;;;;;;;;;13.36;100.00;97520.16;4990552;28;19956;-93
2023/11/04 10:58:40;;;;;;;;;;;;;;;13.33;100.00;97536.63;4990092;28;20005;-92
2023/11/04 11:01:06;;;;;;;;;;;;;;;13.28;100.00;97536.22;4993986;28;19920;-93
2023/11/04 11:03:33;;;;;;;;;;;;;;;13.25;100.00;97551.06;5003575;28;20365;-93
2023/11/04 11:06:34;;;;;;;;;;;;;;;13.24;100.00;97555.06;4994582;28;19973;-93
2023/11/04 11:09:04;;;;;;;;;;;;;;;13.22;100.00;97571.50;4972482;28;19918;-92
2023/11/04 11:12:11;;;;;;;;;;;;;;;13.23;100.00;97578.72;4994248;28;19945;-96
2023/11/04 11:14:41;;;;;;;;;;;;;;;13.24;100.00;97630.88;4957611;28;19997;-89
2023/11/04 11:17:06;;;;;;;;;;;;;;;13.22;100.00;97662.13;4987209;28;19917;-91
2023/11/04 11:19:33;;;;;;;;;;;;;;;13.23;100.00;97686.19;5008998;28;19925;-87
2023/11/04 11:21:59;;;;;;;;;;;;;;;13.20;100.00;97681.38;5008022;28;19921;-89
2023/11/04 11:24:25;;;;;;;;;;;;;;;13.11;100.00;97656.50;4989417;28;19925;-88
2023/11/04 11:27:00;;;;;;;;;;;;;;;13.04;100.00;97637.63;4987865;28;20000;-88
2023/11/04 11:29:25;;;;;;;;;;;;;;;13.03;100.00;97638.03;4981431;28;19924;-90
2023/11/04 11:32:02;;;;;;;;;;;;;;;13.11;100.00;97672.53;4979676;28;20001;-90
2023/11/04 11:34:27;;;;;;;;;;;;;;;13.00;100.00;97684.50;4976278;28;19922;-88
2023/11/04 11:36:53;;;;;;;;;;;;;;;12.91;100.00;97665.25;4989012;28;20348;-91
2023/11/04 11:39:19;;;;;;;;;;;;;;;12.82;100.00;97616.31;4991793;28;19920;-91
2023/11/04 11:41:44;;;;;;;;;;;;;;;12.85;100.00;97602.31;5008726;28;19924;-93
2023/11/04 11:44:39;;;;;;;;;;;;;;;12.91;100.00;97611.13;5007669;28;19960;-91
2023/11/04 11:47:12;;;;;;;;;;;;;;;13.00;100.00;97631.19;4954716;28;19918;-88
2023/11/04 11:49:48;;;;;;;;;;;;;;;12.99;100.00;97638.00;4971093;28;19918;-90
2023/11/04 11:52:19;;;;;;;;;;;;;;;13.02;100.00;97645.63;4970111;28;19993;-90
2023/11/04 11:55:15;;;;;;;;;;;;;;;13.07;100.00;97638.81;4972445;28;19922;-88
2023/11/04 11:57:55;;;;;;;;;;;;;;;13.31;100.00;97625.25;4977579;28;19922;-91
2023/11/04 12:01:02;;;;;;;;;;;;;;;;;;;;;
2023/11/04 12:03:30;;;;;;;;;;;;;;;13.71;100.00;97642.16;4943042;28;19928;-92
2023/11/04 12:06:23;;;;;;;;;;;;;;;13.69;100.00;97672.69;4972558;28;19919;-92
2023/11/04 12:09:10;;;;;;;;;;;;;;;13.81;100.00;97706.00;4936727;29;19922;-91
2023/11/04 12:12:04;;;;;;;;;;;;;;;13.94;100.00;97706.41;4936580;29;20361;-92
2023/11/04 12:14:55;;;;;;;;;;;;;;;14.03;100.00;97708.81;4974080;28;20045;-92
2023/11/04 12:18:02;;;;;;;;;;;;;;;14.15;100.00;97688.75;4958738;28;19921;-91
2023/11/04 12:20:59;;;;;;;;;;;;;;;14.30;100.00;97669.84;4966154;28;19914;-88
2023/11/04 12:24:01;;;;;;;;;;;;;;;14.38;100.00;97644.50;4990528;28;19921;-91
2023/11/04 12:26:45;;;;;;;;;;;;;;;14.26;100.00;97626.06;4969594;28;19930;-88
2023/11/04 12:32:24;;;;;;;;;;;;;;;14.18;100.00;97567.03;4992017;28;19921;-90
2023/11/04 12:35:19;;;;;;;;;;;;;;;14.40;100.00;97524.78;4974238;28;20024;-89
2023/11/04 12:38:28;;;;;;;;;;;;;;;14.43;100.00;97506.28;4982694;28;19993;-89
2023/11/04 12:47:24;;;;;;;;;;;;;;;;;;;;;
2023/11/04 12:50:29;;;;;;;;;;;;;;;15.26;100.00;97536.78;4955914;29;19922;-89